Time;durP1;ratioP1;P1;durP2;ratioP2;P2;SDS_P1;SDS_P2;PMS_P1;PMS_P2;Temp;Humidity;BMP_temperature;BMP_pressure;BME280_temperature;BME280_humidity;BME280_pressure;Samples;Min_cycle;Max_cycle;Signal;HPM_P1;HPM_P2
2021/12/22 00:01:00;;;;;;;27.77;13.60;;;;;;;-1.88;55.21;95752.88;4975279;28;20063;-79
2021/12/22 00:03:25;;;;;;;28.98;14.73;;;;;;;-1.86;54.54;95740.81;4974818;28;20039;-79
2021/12/22 00:05:52;;;;;;;21.85;11.93;;;;;;;-1.88;54.62;95750.31;4942976;28;20039;-80
2021/12/22 00:08:18;;;;;;;17.90;11.52;;;;;;;-2.00;55.48;95751.38;4990593;28;20085;-79
2021/12/22 00:10:44;;;;;;;21.98;12.10;;;;;;;-2.15;55.90;95748.41;4972721;28;20035;-79
2021/12/22 00:13:09;;;;;;;19.50;11.32;;;;;;;-2.22;55.95;95752.41;4976903;28;20101;-79
2021/12/22 00:15:35;;;;;;;23.30;12.13;;;;;;;-2.24;56.21;95748.38;4975373;28;20046;-79
2021/12/22 00:18:00;;;;;;;21.40;11.15;;;;;;;-2.28;56.06;95747.00;4975072;28;20034;-79
2021/12/22 00:20:25;;;;;;;19.20;10.93;;;;;;;-2.25;55.95;95742.50;4979734;28;20115;-79
2021/12/22 00:22:51;;;;;;;22.10;10.90;;;;;;;-2.29;56.41;95743.66;4974973;28;20106;-79
2021/12/22 00:25:17;;;;;;;18.35;10.88;;;;;;;-2.26;56.53;95742.63;4942918;28;20063;-79
2021/12/22 00:27:42;;;;;;;22.20;11.75;;;;;;;-2.18;55.78;95745.31;4957151;28;20414;-79
2021/12/22 00:32:50;;;;;;;25.60;11.60;;;;;;;-2.03;55.19;95746.53;5051332;23;20058;-79
2021/12/22 00:35:17;;;;;;;18.58;11.70;;;;;;;-1.97;54.99;95748.56;4973299;28;20039;-79
2021/12/22 00:37:42;;;;;;;17.58;11.77;;;;;;;-1.87;54.93;95754.50;4973954;28;20459;-79
2021/12/22 00:40:08;;;;;;;17.92;10.20;;;;;;;-1.79;54.33;95758.09;4972887;28;20035;-80
2021/12/22 00:42:33;;;;;;;17.30;10.73;;;;;;;-1.74;54.58;95766.19;4974306;28;20042;-80
2021/12/22 00:44:59;;;;;;;14.85;10.55;;;;;;;-1.71;54.75;95759.06;4956727;28;20034;-80
2021/12/22 00:47:26;;;;;;;17.10;12.50;;;;;;;-1.64;54.30;95756.78;4957082;28;20062;-79
2021/12/22 00:49:52;;;;;;;14.50;9.98;;;;;;;-1.69;54.99;95758.94;4961999;28;20062;-78
2021/12/22 00:52:18;;;;;;;16.90;10.25;;;;;;;-1.61;54.99;95764.19;4987481;28;20058;-77
2021/12/22 00:54:43;;;;;;;19.90;10.52;;;;;;;-1.56;54.57;95767.13;4989869;28;20070;-78
2021/12/22 00:57:10;;;;;;;15.75;11.82;;;;;;;-1.52;54.28;95765.91;4975592;28;20049;-80
2021/12/22 00:59:36;;;;;;;22.85;12.15;;;;;;;-1.47;54.16;95761.22;4973273;28;20122;-80
2021/12/22 01:02:03;;;;;;;24.70;11.45;;;;;;;-1.49;54.07;95762.28;4976178;28;20051;-80
2021/12/22 01:04:28;;;;;;;25.98;15.15;;;;;;;-1.55;54.77;95773.84;4957979;28;20045;-79
2021/12/22 01:06:54;;;;;;;37.58;18.63;;;;;;;-2.03;55.40;95769.47;4977218;28;20051;-79
2021/12/22 01:09:19;;;;;;;40.13;18.33;;;;;;;-2.09;55.50;95766.66;4974863;28;20443;-80
2021/12/22 01:11:45;;;;;;;43.22;18.00;;;;;;;-2.05;55.95;95766.25;4976688;28;20046;-80
2021/12/22 01:14:11;;;;;;;31.80;15.73;;;;;;;-2.02;55.22;95758.34;4959948;28;20034;-79
2021/12/22 01:16:36;;;;;;;31.20;16.92;;;;;;;-2.12;55.87;95760.91;4974921;28;20042;-79
2021/12/22 01:19:07;;;;;;;32.83;17.92;;;;;;;-2.05;55.58;95756.06;4958865;28;20035;-79
2021/12/22 01:21:44;;;;;;;38.08;18.10;;;;;;;-2.06;55.45;95758.75;4975677;28;20124;-79
2021/12/22 01:26:45;;;;;;;32.15;16.13;;;;;;;-1.95;55.20;95746.72;4976061;28;20038;-79
2021/12/22 01:29:12;;;;;;;29.15;16.55;;;;;;;-1.94;54.78;95750.06;4994243;28;20046;-78
2021/12/22 01:31:40;;;;;;;30.67;16.30;;;;;;;-2.04;54.76;95747.47;4981481;28;20022;-79
2021/12/22 01:34:05;;;;;;;26.83;14.95;;;;;;;-2.17;54.74;95747.72;4971177;28;20069;-78
2021/12/22 01:36:33;;;;;;;23.90;13.80;;;;;;;-2.33;54.98;95741.50;4988147;28;20043;-78
2021/12/22 01:38:59;;;;;;;24.52;12.80;;;;;;;-2.30;54.98;95746.34;4982233;28;20027;-79
2021/12/22 01:41:24;;;;;;;21.48;12.07;;;;;;;-2.24;54.01;95745.84;4977611;28;20045;-79
2021/12/22 01:43:53;;;;;;;18.73;11.93;;;;;;;-2.21;54.16;95745.56;4959224;28;20279;-79
2021/12/22 01:49:09;;;;;;;21.38;11.15;;;;;;;-2.13;53.48;95732.97;4959227;28;20031;-79
2021/12/22 01:49:43;;;;;;;21.95;12.27;;;;;;;-2.18;54.29;95741.00;4963246;28;20030;-79
2021/12/22 01:52:11;;;;;;;22.67;14.02;;;;;;;-2.21;55.42;95740.47;4976663;28;20037;-78
2021/12/22 01:55:03;;;;;;;22.50;13.07;;;;;;;-2.12;54.08;95735.41;4974715;28;20517;-79
2021/12/22 01:57:28;;;;;;;21.95;12.75;;;;;;;-2.10;54.51;95730.19;4961566;28;21847;-79
2021/12/22 01:59:54;;;;;;;23.27;12.02;;;;;;;-2.17;54.06;95732.44;4973732;28;20121;-79
2021/12/22 02:02:19;;;;;;;20.13;12.90;;;;;;;-2.26;54.74;95734.97;4975987;28;20061;-78
2021/12/22 02:04:45;;;;;;;25.45;13.15;;;;;;;-2.18;54.59;95730.03;4958915;28;20066;-79
2021/12/22 02:07:11;;;;;;;25.77;14.77;;;;;;;-2.17;54.53;95727.34;4959375;28;20043;-79
2021/12/22 02:14:42;;;;;;;26.65;15.15;;;;;;;-2.27;55.25;95730.81;5031642;23;20116;-79
2021/12/22 02:17:10;;;;;;;33.17;15.02;;;;;;;-2.31;55.50;95717.50;4969539;28;20027;-78
2021/12/22 02:19:46;;;;;;;28.90;16.10;;;;;;;-2.24;54.95;95720.38;4949008;28;20042;-78
2021/12/22 02:22:14;;;;;;;37.45;15.90;;;;;;;-2.18;54.88;95722.38;4966989;28;20031;-79
2021/12/22 02:24:45;;;;;;;29.83;16.67;;;;;;;-2.17;55.36;95717.16;5032545;23;20038;-78
2021/12/22 02:27:19;;;;;;;36.53;17.35;;;;;;;-2.17;55.44;95721.44;4991038;28;20056;-79
2021/12/22 02:29:47;;;;;;;43.72;22.90;;;;;;;-2.17;55.88;95723.97;4976868;28;20058;-80
2021/12/22 02:35:03;;;;;;;64.78;33.08;;;;;;;-2.30;55.83;95716.56;4988171;28;20537;-79
2021/12/22 02:37:46;;;;;;;75.25;32.58;;;;;;;-2.32;56.49;95715.09;4994952;28;20037;-79
2021/12/22 02:40:15;;;;;;;146.20;75.38;;;;;;;-2.29;56.81;95705.44;4992648;28;20090;-79
2021/12/22 02:42:41;;;;;;;257.55;141.40;;;;;;;-2.29;55.94;95707.19;4994048;28;20018;-79
2021/12/22 02:45:15;;;;;;;221.50;116.05;;;;;;;-2.36;56.29;95711.22;4975737;28;20109;-79
2021/12/22 02:47:40;;;;;;;221.45;122.18;;;;;;;-2.39;56.72;95706.38;4993045;28;20022;-80
2021/12/22 02:50:06;;;;;;;178.57;98.50;;;;;;;-2.37;56.75;95705.31;4989880;28;20038;-78
2021/12/22 02:52:48;;;;;;;161.20;84.32;;;;;;;-2.38;56.57;95705.44;4992811;28;20034;-79
2021/12/22 02:55:14;;;;;;;148.40;83.32;;;;;;;-2.31;55.54;95706.53;4990630;28;20094;-78
2021/12/22 02:57:44;;;;;;;129.90;71.60;;;;;;;-2.32;55.41;95708.25;4993576;28;20017;-79
2021/12/22 03:00:45;;;;;;;150.98;77.50;;;;;;;-2.34;56.22;95704.25;4995958;28;20023;-79
2021/12/22 03:03:27;;;;;;;130.38;73.10;;;;;;;-2.40;56.58;95710.66;4997086;28;20018;-79
2021/12/22 03:05:53;;;;;;;105.47;55.87;;;;;;;-2.46;56.48;95713.72;4996675;28;20033;-79
2021/12/22 03:08:18;;;;;;;64.18;39.58;;;;;;;-2.46;56.63;95709.44;4980636;28;20650;-78
2021/12/22 03:10:44;;;;;;;89.53;47.55;;;;;;;-2.40;56.23;95712.41;4995794;28;20037;-78
2021/12/22 03:13:11;;;;;;;64.45;35.45;;;;;;;-2.48;56.55;95702.84;4993425;28;20035;-79
2021/12/22 03:15:54;;;;;;;57.53;28.75;;;;;;;-2.37;56.71;95705.31;4964862;28;20065;-79
2021/12/22 03:18:20;;;;;;;45.85;25.92;;;;;;;-2.37;56.70;95710.41;4995137;28;20043;-78
2021/12/22 03:20:56;;;;;;;45.55;23.90;;;;;;;-2.28;56.57;95703.72;4979112;28;20039;-79
2021/12/22 03:23:22;;;;;;;43.90;21.38;;;;;;;-2.23;55.71;95709.25;4994815;28;20015;-78
2021/12/22 03:25:47;;;;;;;50.75;21.98;;;;;;;-2.22;56.17;95705.75;4991159;28;20031;-79
2021/12/22 03:28:15;;;;;;;43.88;21.23;;;;;;;-2.24;56.10;95707.63;5103187;23;20056;-78
2021/12/22 03:30:44;;;;;;;42.08;23.10;;;;;;;-2.28;56.66;95713.91;4959080;28;20063;-78
2021/12/22 03:33:09;;;;;;;41.63;21.58;;;;;;;-2.22;56.24;95713.41;4952494;29;20609;-77
2021/12/22 03:35:37;;;;;;;45.05;21.88;;;;;;;-2.19;56.58;95713.13;4943292;29;20036;-78
2021/12/22 03:38:03;;;;;;;42.58;21.27;;;;;;;-2.21;56.34;95709.91;4940772;28;20166;-78
2021/12/22 03:40:28;;;;;;;47.58;21.48;;;;;;;-2.20;56.18;95704.69;4937435;29;20087;-79
2021/12/22 03:42:54;;;;;;;35.85;18.70;;;;;;;-2.29;56.52;95699.56;4941189;29;20042;-80
2021/12/22 03:45:19;;;;;;;43.22;21.35;;;;;;;-2.30;56.50;95701.28;4966552;29;20027;-80
2021/12/22 03:47:45;;;;;;;160.85;69.65;;;;;;;-2.39;56.94;95711.47;4950148;29;20043;-79
2021/12/22 03:50:11;;;;;;;80.28;39.60;;;;;;;-2.34;57.21;95709.34;4948529;29;20507;-81
2021/12/22 03:52:36;;;;;;;122.20;59.80;;;;;;;-2.42;56.03;95713.34;4937082;29;20032;-78
2021/12/22 03:55:02;;;;;;;115.68;58.70;;;;;;;-2.40;55.81;95712.41;4935549;28;20036;-78
2021/12/22 03:57:28;;;;;;;72.30;35.97;;;;;;;-2.40;57.35;95714.97;4936531;29;20042;-79
2021/12/22 04:00:00;;;;;;;95.93;54.42;;;;;;;-2.48;56.21;95716.41;4935307;29;20123;-78
2021/12/22 04:02:27;;;;;;;97.00;57.58;;;;;;;-2.53;56.00;95716.00;4949156;29;20044;-78
2021/12/22 04:04:52;;;;;;;64.40;32.80;;;;;;;-2.59;56.39;95716.50;4949625;29;20039;-78
2021/12/22 04:07:18;;;;;;;59.33;32.70;;;;;;;-2.63;56.85;95711.78;4934854;29;20091;-78
2021/12/22 04:09:43;;;;;;;67.18;31.83;;;;;;;-2.55;56.53;95722.94;4935366;29;20146;-80
2021/12/22 04:12:09;;;;;;;107.93;63.85;;;;;;;-2.56;56.85;95718.00;4935931;29;20047;-80
2021/12/22 04:14:35;;;;;;;149.15;83.10;;;;;;;-2.64;56.99;95721.16;4937131;29;20028;-80
2021/12/22 04:17:03;;;;;;;171.23;87.15;;;;;;;-2.63;57.10;95720.22;4936677;29;20031;-80
2021/12/22 04:19:29;;;;;;;161.75;77.30;;;;;;;-2.64;56.82;95723.72;4935907;29;20039;-79
2021/12/22 04:21:54;;;;;;;180.63;78.95;;;;;;;-2.64;57.00;95728.81;4937167;29;20083;-80
2021/12/22 04:24:20;;;;;;;147.10;69.63;;;;;;;-2.62;57.30;95726.13;4936561;29;20104;-80
2021/12/22 04:26:46;;;;;;;148.00;70.80;;;;;;;-2.66;56.54;95730.69;4936632;29;20042;-79
2021/12/22 04:29:14;;;;;;;161.52;86.32;;;;;;;-2.66;56.68;95735.75;4941678;29;20027;-82
2021/12/22 04:31:42;;;;;;;182.20;96.38;;;;;;;-2.70;56.87;95724.22;4959020;29;20036;-85
2021/12/22 04:34:08;;;;;;;197.77;102.97;;;;;;;-2.71;57.17;95730.25;4943497;29;20059;-84
2021/12/22 04:36:38;;;;;;;169.50;86.20;;;;;;;-2.68;56.28;95737.63;4968861;29;20039;-83
2021/12/22 04:39:04;;;;;;;188.40;93.63;;;;;;;-2.77;56.88;95733.28;4976455;29;20039;-82
2021/12/22 04:41:29;;;;;;;121.03;58.78;;;;;;;-2.80;57.64;95733.56;4976909;28;20050;-83
2021/12/22 04:43:55;;;;;;;84.38;42.65;;;;;;;-2.64;57.18;95736.44;4961862;28;20036;-81
2021/12/22 04:46:20;;;;;;;70.75;36.38;;;;;;;-2.60;57.55;95742.91;4957574;29;20040;-81
2021/12/22 04:48:46;;;;;;;102.38;52.63;;;;;;;-2.61;56.93;95743.81;4958234;29;20035;-80
2021/12/22 04:51:22;;;;;;;143.43;72.50;;;;;;;-2.81;56.99;95749.75;4968354;29;20039;-81
2021/12/22 04:53:52;;;;;;;146.73;72.32;;;;;;;-2.82;57.23;95743.06;4957060;29;20028;-80
2021/12/22 04:56:18;;;;;;;137.68;69.55;;;;;;;-2.80;57.04;95748.81;4973136;28;20042;-80
2021/12/22 04:58:44;;;;;;;84.90;41.78;;;;;;;-2.80;56.98;95743.75;4957774;29;20044;-80
2021/12/22 05:01:09;;;;;;;62.72;34.00;;;;;;;-2.74;56.67;95743.25;4954627;29;20055;-80
2021/12/22 05:03:35;;;;;;;43.15;24.48;;;;;;;-2.74;56.32;95748.34;4969629;29;20032;-81
2021/12/22 05:06:02;;;;;;;38.05;18.55;;;;;;;-2.66;55.86;95745.94;4972803;29;20047;-81
2021/12/22 05:08:29;;;;;;;41.55;21.20;;;;;;;-2.67;55.24;95753.72;4951372;29;20030;-80
2021/12/22 05:10:55;;;;;;;34.72;19.25;;;;;;;-2.66;55.84;95751.03;4956262;29;20075;-81
2021/12/22 05:13:20;;;;;;;55.63;26.60;;;;;;;-2.63;56.36;95760.97;4953540;29;20032;-81
2021/12/22 05:15:49;;;;;;;82.25;35.83;;;;;;;-2.72;56.19;95756.66;4968997;29;20495;-85
2021/12/22 05:20:42;;;;;;;42.88;22.20;;;;;;;-2.66;55.68;95756.13;4940181;29;20131;-83
2021/12/22 05:23:08;;;;;;;42.60;23.20;;;;;;;-2.78;55.52;95763.03;4957400;29;20476;-82
2021/12/22 05:25:33;;;;;;;59.13;21.08;;;;;;;-2.80;56.23;95761.56;4954896;29;20522;-81
2021/12/22 05:27:59;;;;;;;46.05;19.92;;;;;;;-2.71;56.63;95763.34;4936698;29;20035;-84
2021/12/22 05:30:24;;;;;;;49.58;24.20;;;;;;;-2.75;56.14;95773.00;4951214;29;20408;-84
2021/12/22 05:32:54;;;;;;;40.40;21.15;;;;;;;-2.77;56.08;95771.47;4936398;28;20056;-83
2021/12/22 05:35:19;;;;;;;39.20;22.10;;;;;;;-2.78;56.08;95772.41;4936659;29;20036;-83
2021/12/22 05:37:45;;;;;;;52.92;28.17;;;;;;;-2.79;56.14;95781.78;4935833;29;20097;-83
2021/12/22 05:40:10;;;;;;;49.33;25.15;;;;;;;-2.79;54.93;95776.69;4934915;29;20172;-83
2021/12/22 05:42:36;;;;;;;52.95;24.13;;;;;;;-2.73;55.04;95767.78;4937596;29;20091;-79
2021/12/22 05:45:08;;;;;;;39.30;20.27;;;;;;;-2.66;54.91;95771.41;4944587;29;20038;-83
2021/12/22 05:47:33;;;;;;;54.13;24.63;;;;;;;-2.74;55.05;95773.78;4951463;28;20067;-84
2021/12/22 05:49:59;;;;;;;87.93;35.83;;;;;;;-2.84;55.51;95763.56;4939254;29;20500;-84
2021/12/22 05:52:24;;;;;;;171.25;75.10;;;;;;;-2.79;55.72;95765.72;4937768;28;20566;-84
2021/12/22 05:54:50;;;;;;;480.67;288.05;;;;;;;-2.85;55.40;95778.94;4938865;29;20036;-83
2021/12/22 05:57:15;;;;;;;388.75;218.43;;;;;;;-2.83;56.17;95774.53;4939635;29;20032;-84
2021/12/22 06:00:15;;;;;;;285.92;152.23;;;;;;;-2.85;55.92;95782.31;4952024;29;20051;-83
2021/12/22 06:02:41;;;;;;;251.90;136.90;;;;;;;-2.94;56.18;95782.22;4952029;28;20034;-83
2021/12/22 06:05:09;;;;;;;336.15;157.68;;;;;;;-2.99;56.09;95781.81;4937675;29;20036;-83
2021/12/22 06:07:34;;;;;;;305.23;139.35;;;;;;;-2.98;55.86;95776.59;4952530;29;20055;-83
2021/12/22 06:10:00;;;;;;;255.38;128.50;;;;;;;-2.93;56.23;95769.41;4949662;29;20042;-82
2021/12/22 06:12:25;;;;;;;285.15;143.77;;;;;;;-2.91;56.83;95784.56;4953450;29;20039;-82
2021/12/22 06:14:51;;;;;;;287.17;135.38;;;;;;;-2.98;56.34;95788.50;4953221;29;20040;-82
2021/12/22 06:17:16;;;;;;;220.10;108.22;;;;;;;-2.89;55.80;95788.59;4947561;29;20607;-83
2021/12/22 06:19:42;;;;;;;248.65;95.43;;;;;;;-2.97;56.43;95792.66;4938245;29;20335;-83
2021/12/22 06:22:07;;;;;;;347.80;143.57;;;;;;;-2.99;57.47;95799.63;4956431;28;20408;-83
2021/12/22 06:24:33;;;;;;;374.33;173.15;;;;;;;-2.98;56.14;95803.78;4956989;29;20059;-82
2021/12/22 06:26:58;;;;;;;394.73;189.00;;;;;;;-2.98;57.33;95811.41;4970714;29;20035;-83
2021/12/22 06:29:24;;;;;;;473.83;259.23;;;;;;;-2.93;55.98;95809.28;4954597;29;20127;-83
2021/12/22 06:31:50;;;;;;;368.45;169.57;;;;;;;-2.88;55.60;95807.19;4948508;29;20051;-83
2021/12/22 06:34:15;;;;;;;305.95;134.27;;;;;;;-2.91;56.27;95808.25;4946515;29;20035;-83
2021/12/22 06:36:41;;;;;;;219.25;95.53;;;;;;;-2.86;56.54;95812.97;4955919;29;20027;-83
2021/12/22 06:39:06;;;;;;;151.52;69.90;;;;;;;-2.84;55.57;95813.66;4941914;29;20535;-82
2021/12/22 06:41:32;;;;;;;136.65;58.60;;;;;;;-2.69;55.61;95807.31;4936231;29;20516;-83
2021/12/22 06:43:58;;;;;;;82.38;37.70;;;;;;;-2.62;55.78;95805.84;4935865;29;20071;-83
2021/12/22 06:46:23;;;;;;;53.97;25.73;;;;;;;-2.44;55.60;95811.19;4954836;28;20597;-80
2021/12/22 06:48:49;;;;;;;55.20;27.92;;;;;;;-2.16;55.44;95809.69;4946701;29;20040;-78
2021/12/22 06:51:14;;;;;;;33.95;20.02;;;;;;;-2.03;54.32;95814.56;4938417;29;20044;-77
2021/12/22 06:53:40;;;;;;;29.42;18.95;;;;;;;-1.91;53.47;95816.88;4952875;29;20646;-79
2021/12/22 06:56:06;;;;;;;39.17;20.65;;;;;;;-1.77;53.33;95820.00;4938136;29;20052;-79
2021/12/22 06:58:31;;;;;;;34.95;20.23;;;;;;;-1.62;52.92;95813.59;4956799;28;20504;-79
2021/12/22 07:00:57;;;;;;;35.10;18.90;;;;;;;-1.48;52.44;95820.81;4940239;29;20492;-79
2021/12/22 07:03:25;;;;;;;38.63;22.13;;;;;;;-1.29;51.96;95820.84;4941376;29;20035;-79
2021/12/22 07:05:50;;;;;;;40.95;20.88;;;;;;;-1.09;51.96;95820.84;4943762;29;20043;-79
2021/12/22 07:08:16;;;;;;;43.00;22.60;;;;;;;-0.91;51.56;95809.00;4940854;29;20385;-79
2021/12/22 07:10:41;;;;;;;52.63;26.10;;;;;;;-0.74;50.98;95815.97;4937254;29;20599;-79
2021/12/22 07:13:07;;;;;;;50.42;25.02;;;;;;;-0.45;51.07;95815.09;4940459;29;20040;-80
2021/12/22 07:15:32;;;;;;;53.42;27.23;;;;;;;-0.27;51.18;95822.84;4941330;29;20047;-79
2021/12/22 07:17:58;;;;;;;74.65;27.17;;;;;;;-0.02;50.54;95817.88;4938570;29;20074;-80
2021/12/22 07:20:23;;;;;;;52.75;27.20;;;;;;;0.32;50.72;95817.28;4956989;28;20553;-79
2021/12/22 07:22:49;;;;;;;54.70;26.23;;;;;;;0.60;50.06;95813.72;4940162;29;20032;-80
2021/12/22 07:25:24;;;;;;;60.22;30.33;;;;;;;0.83;49.43;95810.75;4942652;29;20031;-80
2021/12/22 07:27:49;;;;;;;70.13;30.45;;;;;;;1.23;48.93;95806.91;4943026;29;20059;-79
2021/12/22 07:30:17;;;;;;;72.15;31.38;;;;;;;1.47;48.01;95807.06;4943291;29;20094;-80
2021/12/22 07:32:42;;;;;;;67.22;28.80;;;;;;;1.68;46.07;95799.81;4958194;28;20042;-80
2021/12/22 07:35:30;;;;;;;58.90;29.58;;;;;;;1.96;45.98;95804.75;4940984;29;20023;-78
2021/12/22 07:38:24;;;;;;;74.22;31.92;;;;;;;2.14;45.41;95800.34;4957441;29;20122;-80
2021/12/22 07:40:51;;;;;;;49.17;29.33;;;;;;;2.31;44.92;95799.41;4960344;29;20028;-79
2021/12/22 07:43:16;;;;;;;55.63;30.10;;;;;;;2.49;44.19;95798.50;4945176;29;20043;-79
2021/12/22 07:45:42;;;;;;;48.03;25.77;;;;;;;2.58;42.79;95798.34;4949683;29;20042;-79
2021/12/22 07:48:07;;;;;;;52.63;23.38;;;;;;;2.54;43.55;95797.06;4944743;29;20036;-79
2021/12/22 07:50:33;;;;;;;59.40;27.95;;;;;;;2.44;42.97;95796.41;4944882;29;20040;-79
2021/12/22 07:52:58;;;;;;;56.22;27.70;;;;;;;2.30;42.96;95790.13;4943365;29;20570;-79
2021/12/22 07:55:24;;;;;;;56.38;26.48;;;;;;;2.30;43.39;95790.13;4941657;29;20051;-79
2021/12/22 07:57:49;;;;;;;59.60;27.10;;;;;;;2.24;42.81;95795.06;4942077;29;20110;-79
2021/12/22 08:00:17;;;;;;;49.20;28.23;;;;;;;2.10;42.74;95799.00;4957662;28;20031;-79
2021/12/22 08:02:43;;;;;;;54.03;29.08;;;;;;;2.01;43.03;95799.97;4942522;29;20476;-79
2021/12/22 08:05:08;;;;;;;57.45;29.40;;;;;;;1.99;43.26;95801.88;4943441;29;20035;-79
2021/12/22 08:07:34;;;;;;;52.55;26.90;;;;;;;2.00;43.48;95808.63;4959476;28;20098;-79
2021/12/22 08:10:00;;;;;;;63.15;27.98;;;;;;;1.91;43.17;95812.88;4958720;28;20046;-79
2021/12/22 08:12:26;;;;;;;46.05;24.58;;;;;;;1.86;42.73;95816.88;4959119;29;20055;-79
2021/12/22 08:14:51;;;;;;;53.55;23.25;;;;;;;1.83;43.22;95817.19;4941573;29;20142;-79
2021/12/22 08:17:17;;;;;;;51.22;22.50;;;;;;;1.84;43.13;95823.94;4942064;29;20031;-78
2021/12/22 08:19:45;;;;;;;38.90;17.73;;;;;;;1.78;42.86;95823.56;4942317;29;20047;-77
2021/12/22 08:22:10;;;;;;;34.83;15.88;;;;;;;1.90;42.32;95820.75;4940635;29;20031;-78
2021/12/22 08:24:37;;;;;;;34.63;17.35;;;;;;;2.05;42.98;95821.78;4956219;29;20042;-78
2021/12/22 08:27:02;;;;;;;36.00;18.60;;;;;;;2.15;43.20;95821.66;4938896;29;20040;-78
2021/12/22 08:29:49;;;;;;;38.03;19.35;;;;;;;2.22;43.13;95822.63;4939095;29;20519;-78
2021/12/22 08:32:15;;;;;;;39.33;17.85;;;;;;;2.18;42.44;95813.66;4944162;29;20412;-79
2021/12/22 08:34:41;;;;;;;30.17;17.10;;;;;;;2.16;42.20;95813.81;4942772;29;20038;-80
2021/12/22 08:39:52;;;;;;;31.77;16.90;;;;;;;2.04;42.30;95825.28;4944795;29;20075;-78
2021/12/22 08:42:20;;;;;;;26.73;16.90;;;;;;;1.99;42.34;95830.09;4965392;29;20055;-78
2021/12/22 08:44:45;;;;;;;26.75;16.40;;;;;;;2.01;42.90;95825.59;4956721;29;20047;-79
2021/12/22 08:47:11;;;;;;;45.08;20.55;;;;;;;1.93;43.11;95828.13;4974617;29;20064;-78
2021/12/22 08:49:37;;;;;;;39.42;19.38;;;;;;;2.02;42.67;95830.59;4969244;28;20039;-79
2021/12/22 08:52:03;;;;;;;41.60;22.30;;;;;;;2.13;42.48;95832.09;4945987;29;20047;-78
2021/12/22 08:54:28;;;;;;;38.35;22.23;;;;;;;2.27;42.07;95828.91;4960159;29;20063;-79
2021/12/22 08:56:55;;;;;;;46.15;24.70;;;;;;;2.38;41.86;95823.50;4944089;29;20039;-78
2021/12/22 08:59:21;;;;;;;40.42;21.45;;;;;;;2.44;42.13;95828.94;4944143;29;20055;-79
2021/12/22 09:01:46;;;;;;;44.67;23.02;;;;;;;2.46;42.14;95830.44;4942948;29;20419;-79
2021/12/22 09:04:14;;;;;;;42.65;20.02;;;;;;;2.52;41.37;95824.66;4941622;29;20038;-79
2021/12/22 09:06:42;;;;;;;29.15;16.45;;;;;;;2.43;41.53;95830.72;4958024;29;20036;-79
2021/12/22 09:09:08;;;;;;;33.42;17.85;;;;;;;2.44;41.20;95831.53;4941878;29;20039;-79
2021/12/22 09:11:34;;;;;;;30.73;16.70;;;;;;;2.41;41.83;95828.31;4943399;29;20046;-79
2021/12/22 09:14:02;;;;;;;40.78;18.73;;;;;;;2.48;41.36;95833.63;4943449;29;20099;-79
2021/12/22 09:16:28;;;;;;;35.40;17.33;;;;;;;2.56;41.70;95825.13;4962720;28;20096;-78
2021/12/22 09:18:53;;;;;;;30.75;18.63;;;;;;;2.36;41.67;95825.41;4939023;29;20039;-78
2021/12/22 09:21:21;;;;;;;43.50;18.98;;;;;;;2.34;41.33;95832.47;4952789;28;20036;-78
2021/12/22 09:23:46;;;;;;;33.70;17.65;;;;;;;2.39;42.20;95819.16;4953428;29;20043;-78
2021/12/22 09:26:12;;;;;;;42.15;19.83;;;;;;;2.47;42.05;95826.09;4942536;29;20039;-79
2021/12/22 09:28:37;;;;;;;28.48;17.58;;;;;;;2.51;42.28;95819.69;4959432;28;20512;-80
2021/12/22 09:31:05;;;;;;;36.17;20.55;;;;;;;2.61;42.25;95815.22;4939181;29;20044;-80
2021/12/22 09:53:48;;;;;;;52.83;24.60;;;;;;;3.77;39.93;95795.25;4957979;29;20138;-79
2021/12/22 09:56:16;;;;;;;50.85;24.45;;;;;;;3.65;40.76;95783.69;4941683;29;20476;-79
2021/12/22 09:58:43;;;;;;;52.17;23.77;;;;;;;3.70;39.33;95784.00;4944015;29;20143;-80
2021/12/22 10:01:09;;;;;;;52.95;22.52;;;;;;;3.67;39.35;95785.13;4945605;29;20044;-79
2021/12/22 10:03:34;;;;;;;51.50;23.50;;;;;;;3.69;39.78;95782.38;4947829;28;20047;-80
2021/12/22 10:06:00;;;;;;;46.15;23.77;;;;;;;3.82;39.67;95778.34;4944692;29;20031;-79
2021/12/22 10:08:26;;;;;;;41.67;22.42;;;;;;;3.88;39.79;95779.44;4986247;23;20047;-78
2021/12/22 10:10:59;;;;;;;44.95;23.83;;;;;;;3.76;39.24;95773.06;4966539;28;20031;-79
2021/12/22 10:13:26;;;;;;;50.72;23.48;;;;;;;3.85;39.34;95766.91;4959107;28;20043;-78
2021/12/22 10:15:52;;;;;;;49.25;24.15;;;;;;;3.84;39.04;95770.44;4932267;29;20602;-78
2021/12/22 10:18:25;;;;;;;48.20;23.70;;;;;;;3.84;39.40;95773.81;4949352;29;20027;-78
2021/12/22 10:20:52;;;;;;;47.80;22.88;;;;;;;3.75;39.55;95771.47;4963246;28;20039;-78
2021/12/22 10:23:22;;;;;;;44.83;23.88;;;;;;;3.59;40.17;95775.69;4959098;28;20089;-78
2021/12/22 10:25:56;;;;;;;49.30;24.65;;;;;;;3.55;39.95;95771.81;4962577;28;20027;-78
2021/12/22 10:28:23;;;;;;;38.70;23.58;;;;;;;3.56;39.68;95763.13;4961660;28;20126;-79
2021/12/22 10:30:55;;;;;;;52.92;24.80;;;;;;;3.45;40.94;95766.06;4944782;29;20031;-78
2021/12/22 10:33:25;;;;;;;54.33;25.52;;;;;;;3.10;41.12;95766.44;4945165;28;20118;-78
2021/12/22 10:36:02;;;;;;;52.65;23.90;;;;;;;3.12;41.42;95769.66;4943208;29;20038;-78
2021/12/22 10:38:29;;;;;;;45.50;23.50;;;;;;;3.29;40.98;95766.09;4957647;28;20045;-78
2021/12/22 10:40:57;;;;;;;54.25;23.75;;;;;;;3.38;41.20;95765.09;4928979;29;20035;-77
2021/12/22 10:43:28;;;;;;;49.42;24.00;;;;;;;3.55;40.69;95761.53;4945764;29;20035;-78
2021/12/22 10:45:59;;;;;;;49.15;23.40;;;;;;;3.49;40.91;95761.38;4944116;29;20056;-79
2021/12/22 10:51:19;;;;;;;47.90;21.52;;;;;;;2.68;42.39;95767.38;4977671;28;20042;-78
2021/12/22 10:53:47;;;;;;;47.33;20.90;;;;;;;2.68;42.51;95746.84;4944763;28;20578;-79
2021/12/22 10:56:32;;;;;;;40.35;22.25;;;;;;;2.91;42.57;95750.38;4953209;28;20036;-79
2021/12/22 10:59:01;;;;;;;45.20;20.10;;;;;;;3.15;41.80;95751.34;4945617;28;20611;-79
2021/12/22 11:01:26;;;;;;;44.75;20.75;;;;;;;3.24;41.44;95750.34;4947532;29;20039;-77
2021/12/22 11:04:01;;;;;;;61.88;20.10;;;;;;;3.26;41.44;95735.59;4949143;29;20036;-79
2021/12/22 11:06:29;;;;;;;39.58;19.83;;;;;;;3.33;41.31;95738.28;4946093;29;20039;-78
2021/12/22 11:09:08;;;;;;;41.42;20.75;;;;;;;3.49;41.28;95736.47;4944690;28;20030;-78
2021/12/22 11:11:38;;;;;;;42.55;20.08;;;;;;;3.57;40.99;95731.28;4945254;29;20031;-78
2021/12/22 11:14:47;;;;;;;36.88;20.15;;;;;;;3.66;40.90;95736.44;4961529;28;20150;-78
2021/12/22 11:17:18;;;;;;;41.25;18.35;;;;;;;3.42;41.06;95735.53;4940089;28;20039;-78
2021/12/22 11:19:46;;;;;;;42.47;18.42;;;;;;;3.07;41.80;95738.47;4926777;29;20135;-78
2021/12/22 11:24:42;;;;;;;43.15;20.02;;;;;;;3.03;43.07;95732.06;4961028;28;20059;-79
2021/12/22 11:27:08;;;;;;;39.63;19.67;;;;;;;3.21;42.38;95717.25;4962930;28;20035;-79
2021/12/22 11:29:41;;;;;;;45.65;19.60;;;;;;;3.29;42.17;95722.41;4946015;29;20035;-78
2021/12/22 11:32:07;;;;;;;48.95;20.95;;;;;;;3.51;41.79;95728.59;4945680;28;20480;-78
2021/12/22 11:34:35;;;;;;;43.05;19.85;;;;;;;3.60;40.81;95713.00;4944278;29;20427;-78
2021/12/22 11:37:03;;;;;;;38.92;19.40;;;;;;;3.69;40.93;95720.66;4947350;29;20035;-78
2021/12/22 11:39:29;;;;;;;40.10;19.65;;;;;;;3.85;40.98;95725.75;4940654;29;20514;-78
2021/12/22 11:41:57;;;;;;;50.85;21.52;;;;;;;3.72;40.28;95720.31;4941061;29;20519;-78
2021/12/22 11:44:24;;;;;;;38.20;19.92;;;;;;;3.77;40.65;95718.88;4960810;28;20038;-79
2021/12/22 11:46:51;;;;;;;40.40;20.10;;;;;;;3.80;40.89;95712.59;4945063;28;20174;-78
2021/12/22 11:49:22;;;;;;;38.45;18.65;;;;;;;3.85;40.40;95710.31;4952846;29;20031;-78
2021/12/22 11:51:47;;;;;;;46.08;20.73;;;;;;;3.92;40.77;95713.81;4964224;28;20139;-78
2021/12/22 11:54:15;;;;;;;36.35;20.42;;;;;;;3.84;40.75;95713.84;4957271;28;20031;-78
2021/12/22 11:56:41;;;;;;;43.33;21.48;;;;;;;3.79;41.35;95713.56;4974513;28;20034;-79
2021/12/22 11:59:25;;;;;;;47.08;21.27;;;;;;;3.72;40.86;95710.84;4957098;29;20044;-78
2021/12/22 12:02:28;;;;;;;38.47;20.35;;;;;;;3.81;41.05;95714.19;4968361;28;20464;-78
2021/12/22 12:04:55;;;;;;;35.40;20.08;;;;;;;3.88;41.37;95712.53;4959821;29;20054;-78
2021/12/22 12:08:17;;;;;;;32.47;19.45;;;;;;;3.94;40.78;95719.59;4955634;28;20052;-78